sensor_id;sensor_type;location;lat;lon;timestamp;P1;durP1;ratioP1;P2;durP2;ratioP2
64936;SDS011;51452;47.698;19.050;2024-02-04T00:01:50;1.45;;;1.00;;
64936;SDS011;51452;47.698;19.050;2024-02-04T00:04:15;1.38;;;1.08;;
64936;SDS011;51452;47.698;19.050;2024-02-04T00:06:41;1.77;;;1.08;;
64936;SDS011;51452;47.698;19.050;2024-02-04T00:09:06;1.63;;;1.00;;
64936;SDS011;51452;47.698;19.050;2024-02-04T00:11:32;2.65;;;1.40;;
64936;SDS011;51452;47.698;19.050;2024-02-04T00:13:57;1.50;;;1.00;;
64936;SDS011;51452;47.698;19.050;2024-02-04T00:16:22;1.52;;;1.10;;
64936;SDS011;51452;47.698;19.050;2024-02-04T00:18:48;4.88;;;1.00;;
64936;SDS011;51452;47.698;19.050;2024-02-04T00:21:13;1.75;;;1.15;;
64936;SDS011;51452;47.698;19.050;2024-02-04T00:23:39;1.30;;;0.90;;
64936;SDS011;51452;47.698;19.050;2024-02-04T00:26:04;1.30;;;0.93;;
64936;SDS011;51452;47.698;19.050;2024-02-04T00:28:29;1.67;;;0.90;;
64936;SDS011;51452;47.698;19.050;2024-02-04T00:30:55;1.20;;;0.82;;
64936;SDS011;51452;47.698;19.050;2024-02-04T00:33:26;1.67;;;1.00;;
64936;SDS011;51452;47.698;19.050;2024-02-04T00:35:51;1.50;;;1.08;;
64936;SDS011;51452;47.698;19.050;2024-02-04T00:38:16;1.42;;;0.95;;
64936;SDS011;51452;47.698;19.050;2024-02-04T00:40:42;1.10;;;0.80;;
64936;SDS011;51452;47.698;19.050;2024-02-04T00:43:07;1.50;;;1.00;;
64936;SDS011;51452;47.698;19.050;2024-02-04T00:45:33;1.35;;;0.90;;
64936;SDS011;51452;47.698;19.050;2024-02-04T00:47:58;2.08;;;0.90;;
64936;SDS011;51452;47.698;19.050;2024-02-04T00:50:23;1.65;;;0.90;;
64936;SDS011;51452;47.698;19.050;2024-02-04T00:52:49;2.13;;;1.08;;
64936;SDS011;51452;47.698;19.050;2024-02-04T00:55:14;2.13;;;1.10;;
64936;SDS011;51452;47.698;19.050;2024-02-04T00:57:40;1.52;;;1.00;;
64936;SDS011;51452;47.698;19.050;2024-02-04T01:00:05;1.85;;;0.90;;
64936;SDS011;51452;47.698;19.050;2024-02-04T01:02:32;2.15;;;1.02;;
64936;SDS011;51452;47.698;19.050;2024-02-04T01:04:59;1.98;;;1.30;;
64936;SDS011;51452;47.698;19.050;2024-02-04T01:07:24;1.50;;;1.10;;
64936;SDS011;51452;47.698;19.050;2024-02-04T01:09:49;1.25;;;0.90;;
64936;SDS011;51452;47.698;19.050;2024-02-04T01:12:17;1.88;;;1.13;;
64936;SDS011;51452;47.698;19.050;2024-02-04T01:14:43;1.50;;;1.00;;
64936;SDS011;51452;47.698;19.050;2024-02-04T01:17:08;1.05;;;0.85;;
64936;SDS011;51452;47.698;19.050;2024-02-04T01:19:34;1.30;;;1.05;;
64936;SDS011;51452;47.698;19.050;2024-02-04T01:21:59;1.20;;;0.98;;
64936;SDS011;51452;47.698;19.050;2024-02-04T01:24:25;1.63;;;1.10;;
64936;SDS011;51452;47.698;19.050;2024-02-04T01:26:50;1.70;;;1.17;;
64936;SDS011;51452;47.698;19.050;2024-02-04T01:29:16;2.15;;;1.10;;
64936;SDS011;51452;47.698;19.050;2024-02-04T01:31:41;2.22;;;1.45;;
64936;SDS011;51452;47.698;19.050;2024-02-04T01:34:07;1.93;;;1.00;;
64936;SDS011;51452;47.698;19.050;2024-02-04T01:36:32;2.50;;;1.08;;
64936;SDS011;51452;47.698;19.050;2024-02-04T01:38:57;3.73;;;1.17;;
64936;SDS011;51452;47.698;19.050;2024-02-04T01:41:23;1.20;;;0.90;;
64936;SDS011;51452;47.698;19.050;2024-02-04T01:43:51;2.10;;;1.30;;
64936;SDS011;51452;47.698;19.050;2024-02-04T01:46:16;2.40;;;1.50;;
64936;SDS011;51452;47.698;19.050;2024-02-04T01:48:42;2.40;;;1.20;;
64936;SDS011;51452;47.698;19.050;2024-02-04T01:51:08;1.73;;;1.20;;
64936;SDS011;51452;47.698;19.050;2024-02-04T01:53:34;2.23;;;1.53;;
64936;SDS011;51452;47.698;19.050;2024-02-04T01:56:01;1.63;;;1.00;;
64936;SDS011;51452;47.698;19.050;2024-02-04T01:58:27;3.70;;;1.30;;
64936;SDS011;51452;47.698;19.050;2024-02-04T02:00:52;2.20;;;1.40;;
64936;SDS011;51452;47.698;19.050;2024-02-04T02:03:18;2.17;;;1.50;;
64936;SDS011;51452;47.698;19.050;2024-02-04T02:05:45;1.77;;;1.30;;
64936;SDS011;51452;47.698;19.050;2024-02-04T02:08:11;2.30;;;1.40;;
64936;SDS011;51452;47.698;19.050;2024-02-04T02:10:37;2.03;;;1.40;;
64936;SDS011;51452;47.698;19.050;2024-02-04T02:13:06;2.27;;;1.50;;
64936;SDS011;51452;47.698;19.050;2024-02-04T02:15:39;2.20;;;1.60;;
64936;SDS011;51452;47.698;19.050;2024-02-04T02:23:31;2.73;;;1.77;;
64936;SDS011;51452;47.698;19.050;2024-02-04T02:26:01;2.77;;;1.80;;
64936;SDS011;51452;47.698;19.050;2024-02-04T02:28:28;2.50;;;1.70;;
64936;SDS011;51452;47.698;19.050;2024-02-04T02:30:53;2.57;;;1.70;;
64936;SDS011;51452;47.698;19.050;2024-02-04T02:33:19;2.27;;;1.60;;
64936;SDS011;51452;47.698;19.050;2024-02-04T02:35:44;3.33;;;1.80;;
64936;SDS011;51452;47.698;19.050;2024-02-04T02:40:48;2.37;;;1.60;;
64936;SDS011;51452;47.698;19.050;2024-02-04T02:43:18;2.43;;;1.67;;
64936;SDS011;51452;47.698;19.050;2024-02-04T02:45:43;2.73;;;2.00;;
64936;SDS011;51452;47.698;19.050;2024-02-04T02:48:10;1.97;;;1.70;;
64936;SDS011;51452;47.698;19.050;2024-02-04T02:50:37;2.57;;;1.70;;
64936;SDS011;51452;47.698;19.050;2024-02-04T02:53:03;3.17;;;1.70;;
64936;SDS011;51452;47.698;19.050;2024-02-04T02:55:28;2.27;;;1.83;;
64936;SDS011;51452;47.698;19.050;2024-02-04T02:57:54;3.00;;;1.90;;
64936;SDS011;51452;47.698;19.050;2024-02-04T03:00:19;2.53;;;1.73;;
64936;SDS011;51452;47.698;19.050;2024-02-04T03:02:45;2.33;;;1.70;;
64936;SDS011;51452;47.698;19.050;2024-02-04T03:05:11;2.63;;;1.70;;
64936;SDS011;51452;47.698;19.050;2024-02-04T03:07:37;2.57;;;1.63;;
64936;SDS011;51452;47.698;19.050;2024-02-04T03:10:03;2.33;;;1.80;;
64936;SDS011;51452;47.698;19.050;2024-02-04T03:12:28;2.13;;;1.80;;
64936;SDS011;51452;47.698;19.050;2024-02-04T03:14:53;2.30;;;1.67;;
64936;SDS011;51452;47.698;19.050;2024-02-04T03:17:19;4.80;;;2.07;;
64936;SDS011;51452;47.698;19.050;2024-02-04T03:19:47;2.70;;;1.90;;
64936;SDS011;51452;47.698;19.050;2024-02-04T03:22:14;2.30;;;1.60;;
64936;SDS011;51452;47.698;19.050;2024-02-04T03:24:40;2.90;;;2.00;;
64936;SDS011;51452;47.698;19.050;2024-02-04T03:27:05;2.57;;;1.87;;
64936;SDS011;51452;47.698;19.050;2024-02-04T03:29:31;2.43;;;1.67;;
64936;SDS011;51452;47.698;19.050;2024-02-04T03:31:56;2.65;;;1.85;;
64936;SDS011;51452;47.698;19.050;2024-02-04T03:34:21;2.60;;;1.80;;
64936;SDS011;51452;47.698;19.050;2024-02-04T03:36:47;3.50;;;1.90;;
64936;SDS011;51452;47.698;19.050;2024-02-04T03:39:12;2.33;;;1.60;;
64936;SDS011;51452;47.698;19.050;2024-02-04T03:41:37;2.33;;;1.87;;
64936;SDS011;51452;47.698;19.050;2024-02-04T03:44:04;3.47;;;1.95;;
64936;SDS011;51452;47.698;19.050;2024-02-04T03:46:29;2.57;;;1.80;;
64936;SDS011;51452;47.698;19.050;2024-02-04T03:48:55;2.67;;;1.80;;
64936;SDS011;51452;47.698;19.050;2024-02-04T03:51:20;1.93;;;1.50;;
64936;SDS011;51452;47.698;19.050;2024-02-04T03:53:47;2.20;;;1.70;;
64936;SDS011;51452;47.698;19.050;2024-02-04T03:56:13;2.10;;;1.63;;
64936;SDS011;51452;47.698;19.050;2024-02-04T03:58:38;3.58;;;1.60;;
64936;SDS011;51452;47.698;19.050;2024-02-04T04:01:04;2.20;;;1.83;;
64936;SDS011;51452;47.698;19.050;2024-02-04T04:03:30;4.07;;;1.80;;
64936;SDS011;51452;47.698;19.050;2024-02-04T04:05:55;2.15;;;1.58;;
64936;SDS011;51452;47.698;19.050;2024-02-04T04:08:21;2.70;;;1.87;;
64936;SDS011;51452;47.698;19.050;2024-02-04T04:10:46;1.85;;;1.40;;
64936;SDS011;51452;47.698;19.050;2024-02-04T04:13:12;2.33;;;1.70;;
64936;SDS011;51452;47.698;19.050;2024-02-04T04:15:38;2.60;;;1.90;;
64936;SDS011;51452;47.698;19.050;2024-02-04T04:18:04;2.38;;;1.77;;
64936;SDS011;51452;47.698;19.050;2024-02-04T04:20:30;2.25;;;1.67;;
64936;SDS011;51452;47.698;19.050;2024-02-04T04:22:55;2.60;;;1.97;;
64936;SDS011;51452;47.698;19.050;2024-02-04T04:25:20;2.40;;;2.00;;
64936;SDS011;51452;47.698;19.050;2024-02-04T04:27:46;2.67;;;2.00;;
64936;SDS011;51452;47.698;19.050;2024-02-04T04:30:11;2.28;;;1.80;;
64936;SDS011;51452;47.698;19.050;2024-02-04T04:32:37;2.60;;;2.00;;
64936;SDS011;51452;47.698;19.050;2024-02-04T04:35:02;2.47;;;2.10;;
64936;SDS011;51452;47.698;19.050;2024-02-04T04:37:28;2.55;;;1.92;;
64936;SDS011;51452;47.698;19.050;2024-02-04T04:39:53;3.90;;;2.00;;
64936;SDS011;51452;47.698;19.050;2024-02-04T04:42:19;2.50;;;1.97;;
64936;SDS011;51452;47.698;19.050;2024-02-04T04:44:44;14.13;;;7.22;;
64936;SDS011;51452;47.698;19.050;2024-02-04T04:47:10;3.90;;;2.17;;
64936;SDS011;51452;47.698;19.050;2024-02-04T04:49:35;3.90;;;2.47;;
64936;SDS011;51452;47.698;19.050;2024-02-04T04:52:01;2.97;;;2.37;;
64936;SDS011;51452;47.698;19.050;2024-02-04T04:54:29;2.58;;;2.25;;
64936;SDS011;51452;47.698;19.050;2024-02-04T04:56:54;2.55;;;2.13;;
64936;SDS011;51452;47.698;19.050;2024-02-04T04:59:20;3.57;;;2.33;;
64936;SDS011;51452;47.698;19.050;2024-02-04T05:01:48;3.53;;;1.90;;
64936;SDS011;51452;47.698;19.050;2024-02-04T05:04:14;3.17;;;2.57;;
64936;SDS011;51452;47.698;19.050;2024-02-04T05:06:40;3.80;;;2.33;;
64936;SDS011;51452;47.698;19.050;2024-02-04T05:09:06;3.23;;;2.37;;
64936;SDS011;51452;47.698;19.050;2024-02-04T05:11:32;3.35;;;2.35;;
64936;SDS011;51452;47.698;19.050;2024-02-04T05:13:57;2.85;;;2.20;;
64936;SDS011;51452;47.698;19.050;2024-02-04T05:16:23;3.53;;;2.30;;
64936;SDS011;51452;47.698;19.050;2024-02-04T05:18:48;3.30;;;2.50;;
64936;SDS011;51452;47.698;19.050;2024-02-04T05:21:14;3.77;;;2.17;;
64936;SDS011;51452;47.698;19.050;2024-02-04T05:23:39;2.80;;;2.22;;
64936;SDS011;51452;47.698;19.050;2024-02-04T05:26:04;3.57;;;2.23;;
64936;SDS011;51452;47.698;19.050;2024-02-04T05:28:30;2.88;;;2.05;;
64936;SDS011;51452;47.698;19.050;2024-02-04T05:30:57;2.83;;;2.17;;
64936;SDS011;51452;47.698;19.050;2024-02-04T05:33:22;2.47;;;1.95;;
64936;SDS011;51452;47.698;19.050;2024-02-04T05:35:47;3.15;;;2.00;;
64936;SDS011;51452;47.698;19.050;2024-02-04T05:38:13;3.60;;;2.15;;
64936;SDS011;51452;47.698;19.050;2024-02-04T05:40:38;2.78;;;1.90;;
64936;SDS011;51452;47.698;19.050;2024-02-04T05:43:03;2.80;;;1.80;;
64936;SDS011;51452;47.698;19.050;2024-02-04T05:45:33;2.20;;;1.77;;
64936;SDS011;51452;47.698;19.050;2024-02-04T05:47:59;3.03;;;1.93;;
64936;SDS011;51452;47.698;19.050;2024-02-04T05:50:24;2.57;;;1.70;;
64936;SDS011;51452;47.698;19.050;2024-02-04T05:52:49;4.93;;;1.90;;
64936;SDS011;51452;47.698;19.050;2024-02-04T05:55:15;2.50;;;1.73;;
64936;SDS011;51452;47.698;19.050;2024-02-04T05:57:40;1.88;;;1.67;;
64936;SDS011;51452;47.698;19.050;2024-02-04T06:00:06;2.20;;;1.70;;
64936;SDS011;51452;47.698;19.050;2024-02-04T06:02:35;2.80;;;1.73;;
64936;SDS011;51452;47.698;19.050;2024-02-04T06:05:00;2.67;;;1.88;;
64936;SDS011;51452;47.698;19.050;2024-02-04T06:07:26;2.17;;;1.43;;
64936;SDS011;51452;47.698;19.050;2024-02-04T06:09:51;3.03;;;1.80;;
64936;SDS011;51452;47.698;19.050;2024-02-04T06:12:17;2.57;;;1.70;;
64936;SDS011;51452;47.698;19.050;2024-02-04T06:14:42;1.80;;;1.50;;
64936;SDS011;51452;47.698;19.050;2024-02-04T06:17:08;2.23;;;1.60;;
64936;SDS011;51452;47.698;19.050;2024-02-04T06:19:34;2.00;;;1.53;;
64936;SDS011;51452;47.698;19.050;2024-02-04T06:22:00;2.23;;;1.53;;
64936;SDS011;51452;47.698;19.050;2024-02-04T06:24:26;2.50;;;1.60;;
64936;SDS011;51452;47.698;19.050;2024-02-04T06:26:51;3.37;;;1.40;;
64936;SDS011;51452;47.698;19.050;2024-02-04T06:29:16;1.67;;;1.30;;
64936;SDS011;51452;47.698;19.050;2024-02-04T06:31:45;2.17;;;1.53;;
64936;SDS011;51452;47.698;19.050;2024-02-04T06:34:11;2.00;;;1.50;;
64936;SDS011;51452;47.698;19.050;2024-02-04T06:36:37;2.73;;;1.73;;
64936;SDS011;51452;47.698;19.050;2024-02-04T06:39:02;2.07;;;1.53;;
64936;SDS011;51452;47.698;19.050;2024-02-04T06:41:28;2.77;;;1.50;;
64936;SDS011;51452;47.698;19.050;2024-02-04T06:43:53;2.10;;;1.77;;
64936;SDS011;51452;47.698;19.050;2024-02-04T06:46:25;2.33;;;1.60;;
64936;SDS011;51452;47.698;19.050;2024-02-04T06:48:51;1.93;;;1.50;;
64936;SDS011;51452;47.698;19.050;2024-02-04T06:51:17;1.92;;;1.48;;
64936;SDS011;51452;47.698;19.050;2024-02-04T06:53:42;1.70;;;1.35;;
64936;SDS011;51452;47.698;19.050;2024-02-04T06:56:08;2.33;;;1.60;;
64936;SDS011;51452;47.698;19.050;2024-02-04T06:58:33;2.22;;;1.40;;
64936;SDS011;51452;47.698;19.050;2024-02-04T07:00:58;1.50;;;1.40;;
64936;SDS011;51452;47.698;19.050;2024-02-04T07:03:24;1.98;;;1.20;;
64936;SDS011;51452;47.698;19.050;2024-02-04T07:05:49;1.60;;;1.20;;
64936;SDS011;51452;47.698;19.050;2024-02-04T07:08:14;1.77;;;1.33;;
64936;SDS011;51452;47.698;19.050;2024-02-04T07:10:40;2.03;;;1.52;;
64936;SDS011;51452;47.698;19.050;2024-02-04T07:13:06;2.40;;;1.60;;
64936;SDS011;51452;47.698;19.050;2024-02-04T07:15:33;2.97;;;1.70;;
64936;SDS011;51452;47.698;19.050;2024-02-04T07:17:58;2.23;;;1.57;;
64936;SDS011;51452;47.698;19.050;2024-02-04T07:20:23;2.13;;;1.33;;
64936;SDS011;51452;47.698;19.050;2024-02-04T07:22:49;1.92;;;1.48;;
64936;SDS011;51452;47.698;19.050;2024-02-04T07:25:14;1.83;;;1.40;;
64936;SDS011;51452;47.698;19.050;2024-02-04T07:27:40;2.07;;;1.50;;
64936;SDS011;51452;47.698;19.050;2024-02-04T07:30:05;2.72;;;1.75;;
64936;SDS011;51452;47.698;19.050;2024-02-04T07:32:31;1.92;;;1.40;;
64936;SDS011;51452;47.698;19.050;2024-02-04T07:34:59;3.75;;;1.88;;
64936;SDS011;51452;47.698;19.050;2024-02-04T07:37:24;2.47;;;1.50;;
64936;SDS011;51452;47.698;19.050;2024-02-04T07:39:50;2.37;;;1.20;;
64936;SDS011;51452;47.698;19.050;2024-02-04T07:42:15;2.75;;;1.48;;
64936;SDS011;51452;47.698;19.050;2024-02-04T07:44:40;2.22;;;1.30;;
64936;SDS011;51452;47.698;19.050;2024-02-04T07:47:06;1.55;;;1.20;;
64936;SDS011;51452;47.698;19.050;2024-02-04T07:49:31;1.98;;;1.38;;
64936;SDS011;51452;47.698;19.050;2024-02-04T07:51:57;1.90;;;1.40;;
64936;SDS011;51452;47.698;19.050;2024-02-04T07:54:22;3.10;;;1.20;;
64936;SDS011;51452;47.698;19.050;2024-02-04T07:56:48;1.92;;;1.30;;
64936;SDS011;51452;47.698;19.050;2024-02-04T07:59:13;1.98;;;1.02;;
64936;SDS011;51452;47.698;19.050;2024-02-04T08:01:38;1.42;;;1.10;;
64936;SDS011;51452;47.698;19.050;2024-02-04T08:04:04;1.42;;;1.20;;
64936;SDS011;51452;47.698;19.050;2024-02-04T08:06:30;2.28;;;1.40;;
64936;SDS011;51452;47.698;19.050;2024-02-04T08:08:56;2.13;;;1.30;;
64936;SDS011;51452;47.698;19.050;2024-02-04T08:11:21;1.80;;;1.30;;
64936;SDS011;51452;47.698;19.050;2024-02-04T08:13:46;1.73;;;1.20;;
64936;SDS011;51452;47.698;19.050;2024-02-04T08:16:12;1.98;;;1.30;;
64936;SDS011;51452;47.698;19.050;2024-02-04T08:18:37;1.83;;;1.30;;
64936;SDS011;51452;47.698;19.050;2024-02-04T08:21:02;1.77;;;1.30;;
64936;SDS011;51452;47.698;19.050;2024-02-04T08:23:28;1.98;;;1.35;;
64936;SDS011;51452;47.698;19.050;2024-02-04T08:25:54;1.52;;;1.00;;
64936;SDS011;51452;47.698;19.050;2024-02-04T08:28:19;1.42;;;0.95;;
64936;SDS011;51452;47.698;19.050;2024-02-04T08:30:44;1.80;;;1.10;;
64936;SDS011;51452;47.698;19.050;2024-02-04T08:33:10;1.92;;;1.30;;
64936;SDS011;51452;47.698;19.050;2024-02-04T08:35:35;1.70;;;1.33;;
64936;SDS011;51452;47.698;19.050;2024-02-04T08:38:01;2.47;;;1.35;;
64936;SDS011;51452;47.698;19.050;2024-02-04T08:40:26;2.28;;;1.35;;
64936;SDS011;51452;47.698;19.050;2024-02-04T08:42:51;2.45;;;1.40;;
64936;SDS011;51452;47.698;19.050;2024-02-04T08:45:17;2.10;;;1.30;;
64936;SDS011;51452;47.698;19.050;2024-02-04T08:47:42;1.60;;;1.30;;
64936;SDS011;51452;47.698;19.050;2024-02-04T08:50:08;2.00;;;1.30;;
64936;SDS011;51452;47.698;19.050;2024-02-04T08:52:37;2.10;;;1.40;;
64936;SDS011;51452;47.698;19.050;2024-02-04T08:55:03;1.70;;;1.30;;
64936;SDS011;51452;47.698;19.050;2024-02-04T08:57:29;1.80;;;1.23;;
64936;SDS011;51452;47.698;19.050;2024-02-04T08:59:54;1.95;;;1.13;;
64936;SDS011;51452;47.698;19.050;2024-02-04T09:02:20;2.72;;;1.40;;
64936;SDS011;51452;47.698;19.050;2024-02-04T09:04:45;1.30;;;1.00;;
64936;SDS011;51452;47.698;19.050;2024-02-04T09:07:11;2.00;;;1.33;;
64936;SDS011;51452;47.698;19.050;2024-02-04T09:09:36;1.77;;;1.30;;
64936;SDS011;51452;47.698;19.050;2024-02-04T09:12:02;1.98;;;1.40;;
64936;SDS011;51452;47.698;19.050;2024-02-04T09:14:28;1.83;;;1.27;;
64936;SDS011;51452;47.698;19.050;2024-02-04T09:16:53;1.70;;;1.17;;
64936;SDS011;51452;47.698;19.050;2024-02-04T09:19:18;2.88;;;1.15;;
64936;SDS011;51452;47.698;19.050;2024-02-04T09:21:44;1.75;;;1.30;;
64936;SDS011;51452;47.698;19.050;2024-02-04T09:24:09;1.63;;;1.20;;
64936;SDS011;51452;47.698;19.050;2024-02-04T09:26:35;1.65;;;1.10;;
64936;SDS011;51452;47.698;19.050;2024-02-04T09:29:00;1.55;;;1.13;;
64936;SDS011;51452;47.698;19.050;2024-02-04T09:31:25;1.90;;;1.35;;
64936;SDS011;51452;47.698;19.050;2024-02-04T09:33:54;1.52;;;1.10;;
64936;SDS011;51452;47.698;19.050;2024-02-04T09:36:19;1.92;;;1.20;;
64936;SDS011;51452;47.698;19.050;2024-02-04T09:38:47;1.85;;;0.85;;
64936;SDS011;51452;47.698;19.050;2024-02-04T09:41:12;1.80;;;1.10;;
64936;SDS011;51452;47.698;19.050;2024-02-04T09:43:38;1.35;;;0.90;;
64936;SDS011;51452;47.698;19.050;2024-02-04T09:46:04;2.08;;;1.20;;
64936;SDS011;51452;47.698;19.050;2024-02-04T09:48:29;1.67;;;1.13;;
64936;SDS011;51452;47.698;19.050;2024-02-04T09:50:57;1.83;;;1.10;;
64936;SDS011;51452;47.698;19.050;2024-02-04T09:53:25;1.20;;;0.95;;
64936;SDS011;51452;47.698;19.050;2024-02-04T09:55:57;2.22;;;0.90;;
64936;SDS011;51452;47.698;19.050;2024-02-04T09:58:24;1.40;;;0.98;;
64936;SDS011;51452;47.698;19.050;2024-02-04T10:00:50;1.52;;;1.20;;
64936;SDS011;51452;47.698;19.050;2024-02-04T10:03:16;1.35;;;1.02;;
64936;SDS011;51452;47.698;19.050;2024-02-04T10:05:41;1.30;;;1.00;;
64936;SDS011;51452;47.698;19.050;2024-02-04T10:08:06;1.80;;;1.17;;
64936;SDS011;51452;47.698;19.050;2024-02-04T10:10:32;1.30;;;0.93;;
64936;SDS011;51452;47.698;19.050;2024-02-04T10:12:58;1.67;;;1.10;;
64936;SDS011;51452;47.698;19.050;2024-02-04T10:15:23;2.58;;;0.90;;
64936;SDS011;51452;47.698;19.050;2024-02-04T10:17:55;1.63;;;1.00;;
64936;SDS011;51452;47.698;19.050;2024-02-04T10:20:20;1.50;;;1.00;;
64936;SDS011;51452;47.698;19.050;2024-02-04T10:22:46;1.30;;;0.90;;
64936;SDS011;51452;47.698;19.050;2024-02-04T10:25:11;1.42;;;0.90;;
64936;SDS011;51452;47.698;19.050;2024-02-04T10:27:41;2.22;;;1.10;;
64936;SDS011;51452;47.698;19.050;2024-02-04T10:30:07;1.33;;;0.80;;
64936;SDS011;51452;47.698;19.050;2024-02-04T10:32:33;1.40;;;0.90;;
64936;SDS011;51452;47.698;19.050;2024-02-04T10:34:59;1.90;;;1.00;;
64936;SDS011;51452;47.698;19.050;2024-02-04T10:37:26;1.48;;;0.90;;
64936;SDS011;51452;47.698;19.050;2024-02-04T10:39:52;1.05;;;0.70;;
64936;SDS011;51452;47.698;19.050;2024-02-04T10:42:17;6.20;;;0.80;;
64936;SDS011;51452;47.698;19.050;2024-02-04T10:44:52;1.23;;;0.73;;
64936;SDS011;51452;47.698;19.050;2024-02-04T10:47:21;0.82;;;0.70;;
64936;SDS011;51452;47.698;19.050;2024-02-04T10:49:50;1.20;;;0.85;;
64936;SDS011;51452;47.698;19.050;2024-02-04T10:52:19;1.30;;;0.80;;
64936;SDS011;51452;47.698;19.050;2024-02-04T10:54:46;1.40;;;0.80;;
64936;SDS011;51452;47.698;19.050;2024-02-04T10:57:13;2.30;;;0.90;;
64936;SDS011;51452;47.698;19.050;2024-02-04T10:59:44;1.35;;;0.77;;
64936;SDS011;51452;47.698;19.050;2024-02-04T11:02:12;1.08;;;0.77;;
64936;SDS011;51452;47.698;19.050;2024-02-04T11:04:39;1.13;;;0.90;;
64936;SDS011;51452;47.698;19.050;2024-02-04T11:07:07;0.93;;;0.70;;
64936;SDS011;51452;47.698;19.050;2024-02-04T11:09:35;0.63;;;0.52;;
64936;SDS011;51452;47.698;19.050;2024-02-04T11:12:02;1.20;;;0.57;;
64936;SDS011;51452;47.698;19.050;2024-02-04T11:14:31;1.70;;;0.70;;
64936;SDS011;51452;47.698;19.050;2024-02-04T11:17:09;1.10;;;0.80;;
64936;SDS011;51452;47.698;19.050;2024-02-04T11:26:04;1.67;;;0.80;;
64936;SDS011;51452;47.698;19.050;2024-02-04T11:28:30;1.23;;;0.82;;
64936;SDS011;51452;47.698;19.050;2024-02-04T11:30:56;0.90;;;0.70;;
64936;SDS011;51452;47.698;19.050;2024-02-04T11:33:22;1.10;;;0.70;;
64936;SDS011;51452;47.698;19.050;2024-02-04T11:36:12;1.35;;;0.70;;
64936;SDS011;51452;47.698;19.050;2024-02-04T11:38:38;0.90;;;0.70;;
64936;SDS011;51452;47.698;19.050;2024-02-04T11:41:05;1.00;;;0.65;;
64936;SDS011;51452;47.698;19.050;2024-02-04T11:43:34;1.20;;;0.80;;
64936;SDS011;51452;47.698;19.050;2024-02-04T11:46:02;1.48;;;0.65;;
64936;SDS011;51452;47.698;19.050;2024-02-04T11:48:29;1.13;;;0.80;;
64936;SDS011;51452;47.698;19.050;2024-02-04T11:50:57;1.02;;;0.70;;
64936;SDS011;51452;47.698;19.050;2024-02-04T11:53:29;1.08;;;0.82;;
64936;SDS011;51452;47.698;19.050;2024-02-04T11:55:57;1.42;;;0.90;;
64936;SDS011;51452;47.698;19.050;2024-02-04T11:58:23;1.17;;;1.00;;
64936;SDS011;51452;47.698;19.050;2024-02-04T12:00:50;1.00;;;0.80;;
64936;SDS011;51452;47.698;19.050;2024-02-04T12:03:27;2.20;;;1.10;;
64936;SDS011;51452;47.698;19.050;2024-02-04T12:05:53;1.38;;;0.85;;
64936;SDS011;51452;47.698;19.050;2024-02-04T12:08:19;1.73;;;1.00;;
64936;SDS011;51452;47.698;19.050;2024-02-04T12:10:45;1.15;;;0.80;;
64936;SDS011;51452;47.698;19.050;2024-02-04T12:13:13;1.33;;;0.90;;
64936;SDS011;51452;47.698;19.050;2024-02-04T12:15:38;1.25;;;0.95;;
64936;SDS011;51452;47.698;19.050;2024-02-04T12:18:09;1.88;;;0.90;;
64936;SDS011;51452;47.698;19.050;2024-02-04T12:20:35;1.23;;;0.68;;
64936;SDS011;51452;47.698;19.050;2024-02-04T12:23:04;1.10;;;0.70;;
64936;SDS011;51452;47.698;19.050;2024-02-04T12:25:31;1.25;;;0.82;;
64936;SDS011;51452;47.698;19.050;2024-02-04T12:28:00;1.15;;;0.80;;
64936;SDS011;51452;47.698;19.050;2024-02-04T12:30:31;1.02;;;0.70;;
64936;SDS011;51452;47.698;19.050;2024-02-04T12:32:57;1.77;;;0.73;;
64936;SDS011;51452;47.698;19.050;2024-02-04T12:35:23;1.00;;;0.70;;
64936;SDS011;51452;47.698;19.050;2024-02-04T12:37:52;1.30;;;1.00;;
64936;SDS011;51452;47.698;19.050;2024-02-04T12:40:29;1.33;;;0.85;;
64936;SDS011;51452;47.698;19.050;2024-02-04T12:42:56;1.05;;;0.70;;
64936;SDS011;51452;47.698;19.050;2024-02-04T12:45:24;0.85;;;0.70;;
64936;SDS011;51452;47.698;19.050;2024-02-04T12:47:50;1.23;;;0.90;;
64936;SDS011;51452;47.698;19.050;2024-02-04T12:50:17;1.30;;;0.80;;
64936;SDS011;51452;47.698;19.050;2024-02-04T12:52:44;1.52;;;0.90;;
64936;SDS011;51452;47.698;19.050;2024-02-04T12:55:23;1.10;;;0.73;;
64936;SDS011;51452;47.698;19.050;2024-02-04T12:58:00;0.93;;;0.60;;
64936;SDS011;51452;47.698;19.050;2024-02-04T13:00:44;2.50;;;0.82;;
64936;SDS011;51452;47.698;19.050;2024-02-04T13:03:09;1.20;;;0.80;;
64936;SDS011;51452;47.698;19.050;2024-02-04T13:05:35;1.00;;;0.70;;
64936;SDS011;51452;47.698;19.050;2024-02-04T13:08:02;1.25;;;0.75;;
64936;SDS011;51452;47.698;19.050;2024-02-04T13:10:30;1.35;;;0.70;;
64936;SDS011;51452;47.698;19.050;2024-02-04T13:13:05;0.90;;;0.60;;
64936;SDS011;51452;47.698;19.050;2024-02-04T13:15:38;0.98;;;0.70;;
64936;SDS011;51452;47.698;19.050;2024-02-04T13:18:05;0.88;;;0.60;;
64936;SDS011;51452;47.698;19.050;2024-02-04T13:20:31;0.90;;;0.68;;
64936;SDS011;51452;47.698;19.050;2024-02-04T13:22:57;1.50;;;0.70;;
64936;SDS011;51452;47.698;19.050;2024-02-04T13:25:23;1.20;;;0.60;;
64936;SDS011;51452;47.698;19.050;2024-02-04T13:27:48;1.40;;;0.80;;
64936;SDS011;51452;47.698;19.050;2024-02-04T13:30:15;1.35;;;0.75;;
64936;SDS011;51452;47.698;19.050;2024-02-04T13:32:44;0.90;;;0.60;;
64936;SDS011;51452;47.698;19.050;2024-02-04T13:35:09;0.77;;;0.50;;
64936;SDS011;51452;47.698;19.050;2024-02-04T13:37:39;1.55;;;0.60;;
64936;SDS011;51452;47.698;19.050;2024-02-04T13:40:05;1.10;;;0.60;;
64936;SDS011;51452;47.698;19.050;2024-02-04T13:42:32;1.20;;;0.65;;
64936;SDS011;51452;47.698;19.050;2024-02-04T13:44:58;0.75;;;0.63;;
64936;SDS011;51452;47.698;19.050;2024-02-04T13:47:25;1.67;;;0.90;;
64936;SDS011;51452;47.698;19.050;2024-02-04T13:49:51;0.90;;;0.68;;
64936;SDS011;51452;47.698;19.050;2024-02-04T13:52:16;0.90;;;0.60;;
64936;SDS011;51452;47.698;19.050;2024-02-04T13:54:42;1.95;;;0.85;;
64936;SDS011;51452;47.698;19.050;2024-02-04T13:57:07;0.90;;;0.60;;
64936;SDS011;51452;47.698;19.050;2024-02-04T13:59:32;1.48;;;0.80;;
64936;SDS011;51452;47.698;19.050;2024-02-04T14:01:58;0.75;;;0.52;;
64936;SDS011;51452;47.698;19.050;2024-02-04T14:04:23;0.82;;;0.60;;
64936;SDS011;51452;47.698;19.050;2024-02-04T14:06:48;1.23;;;0.70;;
64936;SDS011;51452;47.698;19.050;2024-02-04T14:09:14;1.60;;;0.80;;
64936;SDS011;51452;47.698;19.050;2024-02-04T14:11:40;1.48;;;0.80;;
64936;SDS011;51452;47.698;19.050;2024-02-04T14:14:05;1.63;;;0.70;;
64936;SDS011;51452;47.698;19.050;2024-02-04T14:16:31;1.13;;;0.70;;
64936;SDS011;51452;47.698;19.050;2024-02-04T14:18:56;1.35;;;0.70;;
64936;SDS011;51452;47.698;19.050;2024-02-04T14:21:21;1.40;;;0.80;;
64936;SDS011;51452;47.698;19.050;2024-02-04T14:23:47;1.27;;;0.70;;
64936;SDS011;51452;47.698;19.050;2024-02-04T14:26:19;0.90;;;0.70;;
64936;SDS011;51452;47.698;19.050;2024-02-04T14:28:45;1.27;;;0.80;;
64936;SDS011;51452;47.698;19.050;2024-02-04T14:31:11;0.50;;;0.50;;
64936;SDS011;51452;47.698;19.050;2024-02-04T14:33:37;1.10;;;0.70;;
64936;SDS011;51452;47.698;19.050;2024-02-04T14:36:02;0.65;;;0.52;;
64936;SDS011;51452;47.698;19.050;2024-02-04T14:38:29;1.67;;;0.90;;
64936;SDS011;51452;47.698;19.050;2024-02-04T14:40:56;1.08;;;0.70;;
64936;SDS011;51452;47.698;19.050;2024-02-04T14:43:21;1.90;;;0.70;;